createdAt,value
2019-02-18T00:01:07.274Z,0.93
2019-02-18T00:03:36.821Z,0.60
2019-02-18T00:06:06.237Z,0.70
2019-02-18T00:08:35.498Z,0.80
2019-02-18T00:11:05.005Z,5.30
2019-02-18T00:13:34.335Z,0.70
2019-02-18T00:16:03.665Z,0.70
2019-02-18T00:18:33.144Z,4.73
2019-02-18T00:21:02.563Z,0.60
2019-02-18T00:23:32.100Z,0.60
2019-02-18T00:26:01.641Z,0.70
2019-02-18T00:28:31.174Z,0.60
2019-02-18T00:31:00.719Z,0.90
2019-02-18T00:33:31.175Z,0.60
2019-02-18T00:36:00.659Z,0.70
2019-02-18T00:38:30.122Z,0.60
2019-02-18T00:40:59.587Z,0.60
2019-02-18T00:43:29.007Z,0.60
2019-02-18T00:45:58.370Z,0.70
2019-02-18T00:48:29.095Z,0.60
2019-02-18T00:50:58.544Z,0.93
2019-02-18T00:53:28.181Z,0.60
2019-02-18T00:56:00.479Z,0.60
2019-02-18T00:58:32.089Z,0.60
2019-02-18T01:01:01.460Z,0.50
2019-02-18T01:03:31.044Z,0.60
2019-02-18T01:06:00.442Z,0.60
2019-02-18T01:08:30.038Z,0.60
2019-02-18T01:10:59.578Z,24.40
2019-02-18T01:13:31.998Z,19.83
2019-02-18T01:16:01.506Z,21.67
2019-02-18T01:18:30.916Z,23.63
2019-02-18T01:21:00.310Z,22.10
2019-02-18T01:23:29.997Z,20.23
2019-02-18T01:25:59.486Z,32.20
2019-02-18T01:28:29.058Z,29.00
2019-02-18T01:30:58.542Z,28.00
2019-02-18T01:33:28.104Z,32.07
2019-02-18T01:35:57.516Z,29.40
2019-02-18T01:38:27.018Z,24.23
2019-02-18T01:40:56.560Z,20.03
2019-02-18T01:43:26.067Z,24.40
2019-02-18T01:45:55.550Z,35.20
2019-02-18T01:48:24.853Z,31.67
2019-02-18T01:50:54.200Z,23.73
2019-02-18T01:53:23.498Z,24.27
2019-02-18T01:55:52.910Z,29.90
2019-02-18T01:58:22.572Z,34.53
2019-02-18T02:00:52.006Z,31.40
2019-02-18T02:03:21.307Z,8.13
2019-02-18T02:05:50.939Z,0.60
2019-02-18T02:08:20.440Z,0.50
2019-02-18T02:10:49.831Z,0.60
2019-02-18T02:13:33.185Z,1.53
2019-02-18T02:16:04.451Z,0.60
2019-02-18T02:18:34.001Z,0.60
2019-02-18T02:21:03.623Z,0.50
2019-02-18T02:23:33.201Z,0.60
2019-02-18T02:26:02.615Z,0.63
2019-02-18T02:28:32.047Z,0.60
2019-02-18T02:31:01.565Z,0.60
2019-02-18T02:33:30.999Z,0.60
2019-02-18T02:36:00.276Z,0.60
2019-02-18T02:38:29.936Z,0.60
2019-02-18T02:41:00.387Z,0.60
2019-02-18T02:43:29.794Z,0.60
2019-02-18T02:45:59.274Z,0.60
2019-02-18T02:48:28.808Z,0.50
2019-02-18T02:50:58.249Z,0.60
2019-02-18T02:53:27.615Z,0.60
2019-02-18T02:55:56.993Z,0.60
2019-02-18T02:58:26.311Z,0.60
2019-02-18T03:00:56.635Z,0.60
2019-02-18T03:03:25.979Z,0.60
2019-02-18T03:05:55.412Z,0.60
2019-02-18T03:08:24.718Z,0.60
2019-02-18T03:10:54.060Z,0.57
2019-02-18T03:13:23.388Z,0.50
2019-02-18T03:15:52.754Z,0.60
2019-02-18T03:18:22.120Z,0.60
2019-02-18T03:20:51.514Z,0.60
2019-02-18T03:23:20.937Z,0.50
2019-02-18T03:25:52.241Z,0.60
2019-02-18T03:28:54.440Z,0.60
2019-02-18T03:31:26.261Z,0.60
2019-02-18T03:34:12.480Z,0.60
2019-02-18T03:36:41.922Z,0.60
2019-02-18T03:39:11.206Z,0.60
2019-02-18T03:41:41.594Z,0.50
2019-02-18T03:44:10.969Z,0.60
2019-02-18T03:46:40.443Z,0.60
2019-02-18T03:49:09.809Z,0.60
2019-02-18T03:51:39.290Z,0.60
2019-02-18T03:54:08.624Z,0.60
2019-02-18T03:56:37.990Z,0.53
2019-02-18T03:59:08.842Z,0.60
2019-02-18T04:01:38.253Z,0.50
2019-02-18T04:04:08.607Z,0.60
2019-02-18T04:06:37.935Z,0.60
2019-02-18T04:09:07.315Z,0.50
2019-02-18T04:11:36.618Z,0.60
2019-02-18T04:14:05.944Z,0.60
2019-02-18T04:16:35.206Z,0.60
2019-02-18T04:19:04.622Z,0.60
2019-02-18T04:21:34.005Z,0.60
2019-02-18T04:24:03.353Z,0.60
2019-02-18T04:26:32.660Z,0.73
2019-02-18T04:29:02.016Z,0.53
2019-02-18T04:31:31.341Z,0.60
2019-02-18T04:34:00.651Z,0.50
2019-02-18T04:36:30.128Z,0.60
2019-02-18T04:38:59.709Z,0.60
2019-02-18T04:41:29.085Z,0.50
2019-02-18T04:43:58.412Z,0.60
2019-02-18T04:46:27.766Z,0.60
2019-02-18T04:48:57.214Z,0.60
2019-02-18T04:51:26.554Z,0.60
2019-02-18T04:53:55.852Z,0.60
2019-02-18T04:56:25.136Z,0.60
2019-02-18T04:58:54.442Z,0.70
2019-02-18T05:01:23.757Z,0.60
2019-02-18T05:03:53.148Z,0.60
2019-02-18T05:06:22.433Z,0.60
2019-02-18T05:08:51.720Z,4.00
2019-02-18T05:11:21.034Z,0.80
2019-02-18T05:13:50.385Z,0.60
2019-02-18T05:16:19.706Z,0.60
2019-02-18T05:18:49.077Z,1.13
2019-02-18T05:21:18.424Z,0.60
2019-02-18T05:23:47.801Z,0.60
2019-02-18T05:26:17.227Z,0.60
2019-02-18T05:28:46.514Z,0.57
2019-02-18T05:31:15.922Z,0.60
2019-02-18T05:33:45.268Z,3.83
2019-02-18T05:36:14.575Z,0.60
2019-02-18T05:38:44.007Z,0.60
2019-02-18T05:41:13.835Z,0.60
2019-02-18T05:43:43.280Z,0.60
2019-02-18T05:46:12.692Z,0.70
2019-02-18T05:48:42.001Z,0.60
2019-02-18T05:51:11.363Z,2.60
2019-02-18T05:53:40.720Z,0.53
2019-02-18T05:56:10.023Z,0.60
2019-02-18T05:58:39.390Z,0.60
2019-02-18T06:01:08.777Z,0.60
2019-02-18T06:03:38.207Z,0.53
2019-02-18T06:06:07.540Z,0.60
2019-02-18T06:08:36.912Z,0.60
2019-02-18T06:11:06.201Z,0.60
2019-02-18T06:13:37.587Z,0.60
2019-02-18T06:16:06.963Z,0.70
2019-02-18T06:18:36.173Z,0.60
2019-02-18T06:21:05.557Z,0.60
2019-02-18T06:23:34.918Z,0.60
2019-02-18T06:26:04.618Z,0.60
2019-02-18T06:28:33.911Z,0.50
2019-02-18T06:31:04.595Z,0.60
2019-02-18T06:33:36.589Z,0.60
2019-02-18T06:36:06.124Z,0.67
2019-02-18T06:38:35.455Z,0.50
2019-02-18T06:41:05.816Z,0.60
2019-02-18T06:43:35.177Z,0.60
2019-02-18T06:46:15.629Z,1.37
2019-02-18T06:48:51.566Z,0.60
2019-02-18T06:51:20.956Z,0.60
2019-02-18T06:53:50.240Z,0.60
2019-02-18T06:56:54.148Z,0.60
2019-02-18T06:59:33.356Z,0.57
2019-02-18T07:02:21.611Z,0.60
2019-02-18T07:05:06.786Z,0.70
2019-02-18T07:07:51.620Z,0.60
2019-02-18T07:10:38.410Z,0.60
2019-02-18T07:13:07.806Z,0.60
2019-02-18T07:15:37.303Z,0.60
2019-02-18T07:18:06.705Z,0.60
2019-02-18T07:20:35.983Z,0.60
2019-02-18T07:23:05.287Z,0.60
2019-02-18T07:25:34.560Z,0.60
2019-02-18T07:28:03.923Z,0.60
2019-02-18T07:30:33.289Z,1.37
2019-02-18T07:33:02.498Z,0.50
2019-02-18T07:35:31.854Z,0.60
2019-02-18T07:38:01.303Z,0.60
2019-02-18T07:40:30.621Z,2.30
2019-02-18T07:43:00.005Z,31.03
2019-02-18T07:45:31.362Z,34.47
2019-02-18T07:48:00.644Z,31.53
2019-02-18T07:50:30.033Z,39.43
2019-02-18T07:52:59.439Z,26.70
2019-02-18T07:55:28.839Z,45.53
2019-02-18T07:57:58.233Z,45.23
2019-02-18T08:00:27.595Z,46.57
2019-02-18T08:02:56.899Z,50.17
2019-02-18T08:05:26.261Z,48.90
2019-02-18T08:07:55.585Z,50.00
2019-02-18T08:10:25.005Z,38.23
2019-02-18T08:12:54.357Z,44.20
2019-02-18T08:15:23.751Z,50.43
2019-02-18T08:17:53.141Z,49.40
2019-02-18T08:20:22.525Z,42.07
2019-02-18T08:22:51.795Z,55.83
2019-02-18T08:25:21.162Z,59.13
2019-02-18T08:27:50.467Z,56.90
2019-02-18T08:30:19.755Z,51.43
2019-02-18T08:32:49.078Z,48.37
2019-02-18T08:35:19.552Z,54.60
2019-02-18T08:37:48.942Z,60.80
2019-02-18T08:40:22.556Z,64.57
2019-02-18T08:42:49.108Z,57.07
2019-02-18T08:45:18.356Z,68.90
2019-02-18T08:47:47.759Z,70.67
2019-02-18T08:50:17.272Z,50.87
2019-02-18T08:52:46.686Z,62.70
2019-02-18T08:55:16.081Z,63.73
2019-02-18T08:57:45.443Z,41.70
2019-02-18T09:00:16.239Z,64.00
2019-02-18T09:02:45.574Z,57.73
2019-02-18T09:05:16.081Z,61.60
2019-02-18T09:07:45.415Z,64.23
2019-02-18T09:10:14.824Z,64.90
2019-02-18T09:12:44.370Z,58.00
2019-02-18T09:15:14.528Z,55.50
2019-02-18T09:17:43.847Z,52.00
2019-02-18T09:20:13.647Z,56.43
2019-02-18T09:22:51.864Z,67.57
2019-02-18T09:25:24.759Z,66.70
2019-02-18T09:27:54.059Z,62.10
2019-02-18T09:30:26.644Z,56.57
2019-02-18T09:32:56.090Z,53.60
2019-02-18T09:35:25.419Z,62.60
2019-02-18T09:37:55.063Z,72.90
2019-02-18T09:40:24.379Z,52.77
2019-02-18T09:42:53.695Z,52.23
2019-02-18T09:45:23.005Z,62.00
2019-02-18T09:47:54.186Z,56.57
2019-02-18T09:50:23.315Z,64.23
2019-02-18T09:52:52.663Z,66.70
2019-02-18T09:55:22.023Z,60.40
2019-02-18T09:57:52.419Z,57.90
2019-02-18T10:00:21.788Z,64.07
2019-02-18T10:02:51.449Z,54.90
2019-02-18T10:05:20.815Z,61.67
2019-02-18T10:07:50.213Z,57.80
2019-02-18T10:10:19.624Z,61.00
2019-02-18T10:12:48.916Z,59.27
2019-02-18T10:15:18.281Z,57.67
2019-02-18T10:17:47.682Z,62.90
2019-02-18T10:20:17.112Z,55.13
2019-02-18T10:22:46.468Z,59.77
2019-02-18T10:25:15.881Z,52.90
2019-02-18T10:27:45.290Z,54.03
2019-02-18T10:30:14.621Z,58.60
2019-02-18T10:32:44.045Z,54.73
2019-02-18T10:35:14.545Z,60.70
2019-02-18T10:37:54.652Z,62.23
2019-02-18T10:40:19.374Z,56.00
2019-02-18T10:42:48.770Z,59.80
2019-02-18T10:45:19.774Z,58.70
2019-02-18T10:47:52.374Z,57.20
2019-02-18T10:50:21.806Z,53.00
2019-02-18T10:52:51.316Z,56.23
2019-02-18T10:55:20.983Z,49.87
2019-02-18T10:57:52.984Z,58.33
2019-02-18T11:00:23.827Z,53.10
2019-02-18T11:02:53.342Z,49.80
2019-02-18T11:05:22.760Z,52.00
2019-02-18T11:07:52.581Z,53.93
2019-02-18T11:10:22.085Z,51.43
2019-02-18T11:12:51.815Z,55.40
2019-02-18T11:15:21.187Z,56.67
2019-02-18T11:17:53.496Z,54.83
2019-02-18T11:20:22.812Z,59.37
2019-02-18T11:22:52.300Z,49.57
2019-02-18T11:25:21.683Z,48.07
2019-02-18T11:27:52.279Z,54.20
2019-02-18T11:30:21.925Z,58.10
2019-02-18T11:32:51.563Z,53.23
2019-02-18T11:35:21.367Z,53.73
2019-02-18T11:37:50.954Z,55.20
2019-02-18T11:40:20.439Z,48.17
2019-02-18T11:42:49.871Z,47.20
2019-02-18T11:45:19.471Z,56.00
2019-02-18T11:47:49.170Z,47.30
2019-02-18T11:50:18.693Z,52.10
2019-02-18T11:52:53.531Z,52.77
2019-02-18T11:55:24.169Z,53.27
2019-02-18T11:57:53.648Z,52.67
2019-02-18T12:00:23.492Z,53.47
2019-02-18T12:03:03.175Z,57.93
2019-02-18T12:05:29.491Z,45.27
2019-02-18T12:07:59.221Z,46.93
2019-02-18T12:10:36.754Z,43.97
2019-02-18T12:13:07.711Z,47.40
2019-02-18T12:15:37.469Z,45.60
2019-02-18T12:18:08.232Z,44.10
2019-02-18T12:20:41.038Z,42.30
2019-02-18T12:23:10.835Z,43.03
2019-02-18T12:25:42.320Z,43.23
2019-02-18T12:28:12.118Z,42.30
2019-02-18T12:30:41.707Z,45.63
2019-02-18T12:33:11.445Z,42.63
2019-02-18T12:35:41.028Z,47.73
2019-02-18T12:38:10.567Z,40.83
2019-02-18T12:40:40.055Z,42.63
2019-02-18T12:43:10.620Z,48.33
2019-02-18T12:45:40.001Z,40.67
2019-02-18T12:48:09.572Z,39.47
2019-02-18T12:50:39.120Z,40.77
2019-02-18T12:53:08.639Z,41.00
2019-02-18T12:55:38.185Z,40.77
2019-02-18T12:58:07.619Z,38.10
2019-02-18T13:00:37.891Z,39.33
2019-02-18T13:03:07.681Z,38.20
2019-02-18T13:05:37.281Z,39.03
2019-02-18T13:08:06.967Z,39.67
2019-02-18T13:10:36.609Z,39.30
2019-02-18T13:13:06.073Z,37.20
2019-02-18T13:15:35.563Z,36.40
2019-02-18T13:20:34.573Z,37.63
2019-02-18T13:23:03.955Z,40.63
2019-02-18T13:25:33.419Z,38.77
2019-02-18T13:28:08.385Z,36.40
2019-02-18T13:30:34.008Z,37.53
2019-02-18T13:33:04.622Z,35.47
2019-02-18T13:35:34.327Z,35.37
2019-02-18T13:38:03.821Z,35.37
2019-02-18T13:40:33.354Z,34.73
2019-02-18T13:43:03.047Z,35.67
2019-02-18T13:45:38.676Z,36.57
2019-02-18T13:48:08.600Z,36.70
2019-02-18T13:50:38.545Z,38.33
2019-02-18T13:53:10.297Z,34.90
2019-02-18T13:55:39.766Z,37.50
2019-02-18T13:58:09.243Z,36.70
2019-02-18T14:00:38.991Z,41.60
2019-02-18T14:03:08.610Z,37.80
2019-02-18T14:05:38.272Z,38.13
2019-02-18T14:08:07.704Z,38.33
2019-02-18T14:10:37.050Z,37.57
2019-02-18T14:13:07.076Z,35.30
2019-02-18T14:15:47.433Z,37.80
2019-02-18T14:18:16.776Z,39.00
2019-02-18T14:20:46.248Z,39.10
2019-02-18T14:23:15.969Z,38.00
2019-02-18T14:25:45.675Z,37.10
2019-02-18T14:28:17.642Z,39.43
2019-02-18T14:30:47.003Z,38.43
2019-02-18T14:33:17.440Z,36.70
2019-02-18T14:35:46.872Z,37.33
2019-02-18T14:38:16.421Z,31.90
2019-02-18T14:40:46.001Z,34.10
2019-02-18T14:43:15.460Z,37.17
2019-02-18T14:45:45.084Z,35.63
2019-02-18T14:48:14.939Z,37.53
2019-02-18T14:50:56.504Z,36.23
2019-02-18T14:53:19.811Z,41.90
2019-02-18T14:55:49.375Z,36.40
2019-02-18T14:58:18.805Z,33.93
2019-02-18T15:00:48.611Z,31.33
2019-02-18T15:03:18.267Z,34.00
2019-02-18T15:05:47.885Z,34.93
2019-02-18T15:08:17.604Z,33.77
2019-02-18T15:10:48.245Z,31.23
2019-02-18T15:13:17.765Z,30.17
2019-02-18T15:15:47.459Z,39.70
2019-02-18T15:18:20.003Z,31.70
2019-02-18T15:20:49.342Z,34.43
2019-02-18T15:23:21.705Z,34.83
2019-02-18T15:25:54.105Z,35.87
2019-02-18T15:28:23.809Z,30.70
2019-02-18T15:30:53.345Z,32.87
2019-02-18T15:33:24.109Z,31.10
2019-02-18T15:35:56.178Z,30.27
2019-02-18T15:38:25.716Z,32.20
2019-02-18T15:40:57.538Z,29.53
2019-02-18T15:43:28.824Z,37.47
2019-02-18T15:45:58.658Z,32.60
2019-02-18T15:48:30.530Z,30.97
2019-02-18T15:51:00.622Z,32.17
2019-02-18T15:53:30.495Z,33.67
2019-02-18T15:56:00.127Z,39.40
2019-02-18T15:58:29.523Z,34.57
2019-02-18T16:01:01.038Z,35.53
2019-02-18T16:03:30.580Z,36.90
2019-02-18T16:06:01.692Z,38.33
2019-02-18T16:08:32.409Z,34.47
2019-02-18T16:11:02.180Z,35.87
2019-02-18T16:13:31.747Z,32.53
2019-02-18T16:16:01.592Z,36.83
2019-02-18T16:21:07.309Z,34.70
2019-02-18T16:23:36.677Z,38.43
2019-02-18T16:26:06.111Z,35.70
2019-02-18T16:28:35.789Z,33.87
2019-02-18T16:31:10.533Z,29.83
2019-02-18T16:33:58.982Z,35.53
2019-02-18T16:36:28.879Z,31.00
2019-02-18T16:38:58.475Z,32.53
2019-02-18T16:41:28.032Z,31.53
2019-02-18T16:43:57.603Z,34.27
2019-02-18T16:46:30.656Z,34.97
2019-02-18T16:49:00.610Z,32.07
2019-02-18T16:51:30.287Z,30.10
2019-02-18T16:54:01.059Z,38.60
2019-02-18T16:56:30.633Z,31.13
2019-02-18T16:59:03.819Z,30.23
2019-02-18T17:01:33.546Z,32.77
2019-02-18T17:04:03.273Z,33.47
2019-02-18T17:06:32.670Z,31.20
2019-02-18T17:09:02.085Z,30.73
2019-02-18T17:11:31.821Z,38.80
2019-02-18T17:14:03.086Z,35.20
2019-02-18T17:16:32.260Z,33.23
2019-02-18T17:19:04.324Z,32.13
2019-02-18T17:21:39.184Z,30.83
2019-02-18T17:24:08.511Z,37.17
2019-02-18T17:26:41.672Z,36.37
2019-02-18T17:29:11.017Z,36.93
2019-02-18T17:31:40.666Z,35.80
2019-02-18T17:34:10.112Z,27.90
2019-02-18T17:36:42.003Z,37.83
2019-02-18T17:39:11.390Z,31.93
2019-02-18T17:41:43.972Z,38.63
2019-02-18T17:44:20.010Z,39.37
2019-02-18T18:06:08.199Z,36.60
2019-02-18T18:08:37.950Z,20.47
2019-02-18T18:11:07.942Z,30.03
2019-02-18T18:13:43.495Z,35.07
2019-02-18T18:16:16.551Z,36.90
2019-02-18T18:18:47.547Z,32.53
2019-02-18T18:21:17.313Z,34.70
2019-02-18T18:23:46.769Z,30.33
2019-02-18T18:26:16.415Z,35.87
2019-02-18T18:28:47.743Z,32.10
2019-02-18T18:31:17.321Z,32.73
2019-02-18T18:33:47.021Z,34.30
